Time;durP1;ratioP1;P1;durP2;ratioP2;P2;SDS_P1;SDS_P2;PMS_P1;PMS_P2;Temp;Humidity;BMP_temperature;BMP_pressure;BME280_temperature;BME280_humidity;BME280_pressure;Samples;Min_cycle;Max_cycle;Signal;HPM_P1;HPM_P2
2023/12/19 00:01:47;;;;;;;2.63;1.20;;;3.50;99.90;;;;;;4966907;28;20031;-79
2023/12/19 00:04:16;;;;;;;1.42;1.00;;;3.50;99.90;;;;;;4954962;28;20075;-79
2023/12/19 00:06:42;;;;;;;1.67;0.90;;;3.60;99.90;;;;;;4955387;28;20039;-81
2023/12/19 00:09:08;;;;;;;3.55;1.45;;;3.60;99.90;;;;;;4936643;29;20023;-80
2023/12/19 00:11:34;;;;;;;2.42;1.20;;;3.60;99.90;;;;;;4952515;28;20460;-77
2023/12/19 00:14:00;;;;;;;1.77;1.02;;;3.60;99.90;;;;;;4936486;29;20477;-85
2023/12/19 00:16:26;;;;;;;1.88;1.52;;;3.50;99.90;;;;;;4958280;28;20054;-81
2023/12/19 00:18:53;;;;;;;2.92;1.20;;;3.50;99.90;;;;;;4959839;28;20031;-82
2023/12/19 00:21:19;;;;;;;1.20;1.05;;;3.40;99.90;;;;;;4954159;28;20467;-84
2023/12/19 00:23:45;;;;;;;2.45;1.10;;;3.50;99.90;;;;;;4954426;28;20023;-80
2023/12/19 00:26:15;;;;;;;2.70;1.77;;;3.50;99.90;;;;;;4954162;29;20038;-82
2023/12/19 00:28:43;;;;;;;1.52;1.05;;;3.50;99.90;;;;;;4954251;28;20074;-80
2023/12/19 00:31:17;;;;;;;3.30;1.20;;;3.40;99.90;;;;;;4954052;28;20031;-80
2023/12/19 00:33:43;;;;;;;4.95;3.45;;;3.40;99.90;;;;;;4954275;29;20115;-81
2023/12/19 00:36:08;;;;;;;1.58;1.40;;;3.30;99.90;;;;;;4938908;29;20491;-81
2023/12/19 00:38:34;;;;;;;1.65;1.33;;;3.30;99.90;;;;;;4955384;29;20020;-83
2023/12/19 00:41:00;;;;;;;1.48;1.38;;;3.30;99.90;;;;;;4953047;28;20052;-82
2023/12/19 00:43:26;;;;;;;1.60;1.00;;;3.30;99.90;;;;;;4955701;29;20075;-83
2023/12/19 00:45:52;;;;;;;1.50;1.30;;;3.40;99.90;;;;;;4954419;29;20027;-81
2023/12/19 00:48:19;;;;;;;3.20;1.45;;;3.40;99.90;;;;;;4947522;29;20382;-82
2023/12/19 00:50:45;;;;;;;2.95;1.30;;;3.40;99.90;;;;;;4950718;29;20114;-81
2023/12/19 00:53:11;;;;;;;1.95;1.30;;;3.40;99.90;;;;;;4955088;29;20031;-81
2023/12/19 00:55:36;;;;;;;2.58;1.52;;;3.40;99.90;;;;;;4958386;28;20042;-80
2023/12/19 00:58:02;;;;;;;2.38;1.40;;;3.40;99.90;;;;;;4960281;29;20019;-81
2023/12/19 01:00:28;;;;;;;1.58;1.17;;;3.40;99.90;;;;;;4960271;29;20034;-81
2023/12/19 01:02:54;;;;;;;1.55;1.23;;;3.40;99.90;;;;;;4958253;28;20031;-81
2023/12/19 01:05:20;;;;;;;1.90;1.33;;;3.30;99.90;;;;;;4955901;28;20035;-82
2023/12/19 01:07:46;;;;;;;3.38;1.58;;;3.30;99.90;;;;;;4949633;29;20515;-82
2023/12/19 01:10:13;;;;;;;1.33;1.23;;;3.30;99.90;;;;;;4957575;28;20031;-81
2023/12/19 01:12:39;;;;;;;2.57;1.70;;;3.30;99.90;;;;;;4940008;29;20444;-82
2023/12/19 01:15:06;;;;;;;2.28;1.10;;;3.30;99.90;;;;;;4956917;29;20368;-81
2023/12/19 01:17:31;;;;;;;1.42;1.27;;;3.30;99.90;;;;;;4947677;28;20027;-80
2023/12/19 01:19:57;;;;;;;1.65;1.25;;;3.30;99.90;;;;;;4957409;29;20030;-82
2023/12/19 01:22:23;;;;;;;1.98;1.25;;;3.30;99.90;;;;;;4949355;29;20031;-81
2023/12/19 01:24:49;;;;;;;1.33;1.23;;;3.30;99.90;;;;;;4958571;29;20035;-82
2023/12/19 01:27:15;;;;;;;1.40;1.00;;;3.30;99.90;;;;;;4935146;29;20032;-83
2023/12/19 01:29:41;;;;;;;2.10;1.13;;;3.30;99.90;;;;;;4948663;28;20028;-81
2023/12/19 01:32:07;;;;;;;1.98;1.05;;;3.30;99.90;;;;;;4957128;28;20043;-82
2023/12/19 01:34:32;;;;;;;1.27;1.10;;;3.30;99.90;;;;;;4956955;29;20083;-82
2023/12/19 01:36:58;;;;;;;0.88;0.88;;;3.40;99.90;;;;;;4956962;29;20035;-83
2023/12/19 01:39:24;;;;;;;2.20;1.13;;;3.40;99.90;;;;;;4940047;29;20023;-80
2023/12/19 01:41:50;;;;;;;2.00;1.00;;;3.40;99.90;;;;;;4956968;29;20087;-80
2023/12/19 01:44:20;;;;;;;2.50;1.38;;;3.50;99.90;;;;;;4940171;29;20568;-79
2023/12/19 01:46:47;;;;;;;1.90;1.65;;;3.50;99.90;;;;;;4957256;29;20035;-79
2023/12/19 01:49:14;;;;;;;2.10;1.30;;;3.40;99.90;;;;;;4956479;29;20073;-80
2023/12/19 01:51:40;;;;;;;1.58;0.95;;;3.40;99.90;;;;;;4956303;29;20304;-80
2023/12/19 01:54:07;;;;;;;2.15;1.50;;;3.40;99.90;;;;;;4938937;29;20519;-80
2023/12/19 01:56:34;;;;;;;3.83;2.30;;;3.40;99.90;;;;;;4956436;29;20039;-80
2023/12/19 01:59:00;;;;;;;2.78;2.00;;;3.50;99.90;;;;;;4956171;29;20039;-80
2023/12/19 02:01:27;;;;;;;2.97;2.40;;;3.50;99.90;;;;;;4954666;28;20423;-81
2023/12/19 02:03:53;;;;;;;5.97;2.43;;;3.50;99.90;;;;;;4956143;28;20051;-80
2023/12/19 02:06:19;;;;;;;3.10;2.25;;;3.50;99.90;;;;;;4938344;28;20121;-81
2023/12/19 02:08:45;;;;;;;4.13;2.40;;;3.50;99.90;;;;;;4949030;29;20099;-81
2023/12/19 02:11:11;;;;;;;6.35;2.53;;;3.40;99.90;;;;;;4936990;29;20028;-80
2023/12/19 02:13:38;;;;;;;3.45;2.60;;;3.40;99.90;;;;;;4941522;28;20027;-80
2023/12/19 02:16:04;;;;;;;3.03;2.00;;;3.40;99.90;;;;;;4955930;29;20493;-80
2023/12/19 02:18:30;;;;;;;7.45;2.13;;;3.30;99.90;;;;;;4956001;28;20438;-80
2023/12/19 02:20:56;;;;;;;3.58;2.58;;;3.30;99.90;;;;;;4948292;29;20067;-83
2023/12/19 02:23:22;;;;;;;2.95;2.38;;;3.30;99.90;;;;;;4957336;29;20027;-80
2023/12/19 02:25:50;;;;;;;4.20;2.53;;;3.30;99.90;;;;;;4967931;29;20063;-80
2023/12/19 02:28:16;;;;;;;5.95;2.08;;;3.30;99.90;;;;;;4972396;29;20036;-80
2023/12/19 02:30:42;;;;;;;3.55;2.72;;;3.20;99.90;;;;;;4961175;28;20019;-80
2023/12/19 02:33:08;;;;;;;3.25;2.58;;;3.20;99.90;;;;;;4957697;29;20034;-81
2023/12/19 02:35:34;;;;;;;15.25;2.67;;;3.10;99.90;;;;;;4956064;29;20027;-80
2023/12/19 02:38:00;;;;;;;3.83;2.10;;;3.20;99.90;;;;;;4955741;29;20030;-80
2023/12/19 02:40:26;;;;;;;2.60;1.88;;;3.20;99.90;;;;;;4955941;28;20447;-81
2023/12/19 02:42:52;;;;;;;2.65;2.00;;;3.20;99.90;;;;;;4955525;29;20024;-79
2023/12/19 02:45:18;;;;;;;2.22;1.77;;;3.20;99.90;;;;;;4955440;29;20101;-79
2023/12/19 02:47:44;;;;;;;1.70;1.60;;;3.20;99.90;;;;;;4955480;29;20023;-80
2023/12/19 02:50:10;;;;;;;3.63;1.30;;;3.20;99.90;;;;;;4938110;29;20445;-80
2023/12/19 02:52:36;;;;;;;1.75;1.65;;;3.20;99.90;;;;;;4955645;29;20381;-80
2023/12/19 02:55:02;;;;;;;4.47;2.08;;;3.20;99.90;;;;;;4955499;29;20093;-80
2023/12/19 02:57:28;;;;;;;5.00;1.95;;;3.20;99.90;;;;;;4940352;29;20126;-82
2023/12/19 02:59:53;;;;;;;4.80;2.30;;;3.10;99.90;;;;;;4958860;29;20019;-80
2023/12/19 03:02:19;;;;;;;3.75;2.20;;;3.10;99.90;;;;;;4939945;29;20039;-79
2023/12/19 03:04:45;;;;;;;1.95;1.45;;;3.10;99.90;;;;;;4954039;29;20064;-81
2023/12/19 03:07:11;;;;;;;2.42;2.10;;;3.10;99.90;;;;;;4955623;29;20027;-81
2023/12/19 03:09:37;;;;;;;2.33;1.75;;;3.10;99.90;;;;;;4953855;28;20035;-81
2023/12/19 03:12:05;;;;;;;5.68;2.05;;;3.10;99.90;;;;;;4949442;28;20024;-80
2023/12/19 03:14:35;;;;;;;2.53;1.73;;;3.10;99.90;;;;;;4947839;28;20030;-81
2023/12/19 03:17:03;;;;;;;3.28;1.83;;;3.10;99.90;;;;;;4955081;29;20026;-79
2023/12/19 03:19:29;;;;;;;4.28;1.50;;;3.10;99.90;;;;;;4954708;28;20281;-81
2023/12/19 03:21:55;;;;;;;2.45;1.77;;;3.10;99.90;;;;;;4954780;29;20106;-81
2023/12/19 03:24:22;;;;;;;2.90;1.38;;;3.10;99.90;;;;;;4954797;29;20055;-80
2023/12/19 03:26:48;;;;;;;2.08;1.40;;;3.10;99.90;;;;;;4953544;28;20062;-80
2023/12/19 03:29:14;;;;;;;2.20;1.25;;;3.10;99.90;;;;;;4954892;29;20478;-80
2023/12/19 03:31:42;;;;;;;3.25;1.70;;;3.20;99.90;;;;;;4954938;29;20030;-81
2023/12/19 03:34:08;;;;;;;2.63;1.20;;;3.20;99.90;;;;;;4949468;29;20039;-81
2023/12/19 03:36:34;;;;;;;2.15;1.45;;;3.20;99.90;;;;;;4947202;28;20165;-82
2023/12/19 03:39:00;;;;;;;4.25;1.30;;;3.20;99.90;;;;;;4941800;29;20050;-83
2023/12/19 03:41:25;;;;;;;1.48;1.08;;;3.20;99.90;;;;;;4954976;29;20034;-84
2023/12/19 03:43:51;;;;;;;1.23;1.08;;;3.20;99.90;;;;;;4944857;28;20018;-82
2023/12/19 03:46:17;;;;;;;3.60;1.23;;;3.20;99.90;;;;;;4954515;28;20031;-83
2023/12/19 03:48:45;;;;;;;2.72;1.05;;;3.20;99.90;;;;;;4954762;29;20028;-82
2023/12/19 03:51:12;;;;;;;1.05;0.95;;;3.20;99.90;;;;;;4955435;29;20031;-82
2023/12/19 03:53:38;;;;;;;1.87;0.93;;;3.20;99.90;;;;;;4954876;29;20031;-82
2023/12/19 03:56:05;;;;;;;3.88;1.17;;;3.20;99.90;;;;;;4939177;29;20041;-82
2023/12/19 03:58:30;;;;;;;2.70;0.82;;;3.20;99.90;;;;;;4941837;29;20027;-81
2023/12/19 04:00:56;;;;;;;1.23;1.00;;;3.10;99.90;;;;;;4967593;29;20054;-82
2023/12/19 04:03:22;;;;;;;2.47;1.20;;;3.10;99.90;;;;;;4961746;28;20042;-84
2023/12/19 04:05:48;;;;;;;1.73;0.82;;;3.20;99.90;;;;;;4946727;29;20031;-81
2023/12/19 04:08:14;;;;;;;6.28;1.20;;;3.10;99.90;;;;;;4953306;29;20449;-81
2023/12/19 04:10:40;;;;;;;3.00;1.58;;;3.20;99.90;;;;;;4964878;29;20034;-81
2023/12/19 04:13:06;;;;;;;1.52;0.77;;;3.20;99.90;;;;;;4939511;29;20030;-81
2023/12/19 04:15:31;;;;;;;4.47;1.20;;;3.20;99.90;;;;;;4956218;29;20038;-81
2023/12/19 04:17:57;;;;;;;1.15;0.95;;;3.10;99.90;;;;;;4956780;29;20015;-81
2023/12/19 04:20:23;;;;;;;3.53;1.73;;;3.10;99.90;;;;;;4955272;29;20481;-83
2023/12/19 04:22:49;;;;;;;1.70;1.02;;;3.00;99.90;;;;;;4954644;29;20378;-82
2023/12/19 04:25:15;;;;;;;5.75;1.77;;;3.00;99.90;;;;;;4940014;28;20448;-83
2023/12/19 04:27:41;;;;;;;4.63;1.83;;;3.10;99.90;;;;;;4954198;28;20058;-81
2023/12/19 04:30:07;;;;;;;3.28;1.85;;;3.00;99.90;;;;;;4954589;28;20027;-82
2023/12/19 04:32:33;;;;;;;4.47;1.70;;;3.00;99.90;;;;;;4958547;29;20030;-83
2023/12/19 04:34:59;;;;;;;2.83;1.77;;;2.90;99.90;;;;;;4958043;29;20035;-82
2023/12/19 04:37:24;;;;;;;2.30;1.70;;;2.90;99.90;;;;;;4957586;29;20059;-82
2023/12/19 04:39:50;;;;;;;4.40;1.55;;;2.90;99.90;;;;;;4957968;29;20030;-83
2023/12/19 04:42:19;;;;;;;1.80;1.33;;;2.90;99.90;;;;;;4955031;29;20032;-82
2023/12/19 04:44:46;;;;;;;1.92;1.30;;;2.90;99.90;;;;;;4956296;28;20516;-83
2023/12/19 04:47:13;;;;;;;2.10;1.23;;;2.90;99.90;;;;;;4957559;29;20031;-82
2023/12/19 04:49:39;;;;;;;3.13;1.30;;;2.90;99.90;;;;;;4957646;29;20067;-81
2023/12/19 04:52:05;;;;;;;2.60;1.38;;;2.90;99.90;;;;;;4957966;29;20031;-82
2023/12/19 04:54:32;;;;;;;2.95;1.40;;;2.90;99.90;;;;;;4957089;29;20025;-81
2023/12/19 04:56:58;;;;;;;2.65;1.48;;;2.90;99.90;;;;;;4946460;29;20388;-82
2023/12/19 04:59:24;;;;;;;2.67;1.30;;;2.90;99.90;;;;;;4955204;29;20031;-83
2023/12/19 05:01:50;;;;;;;1.88;1.27;;;2.90;99.90;;;;;;4958273;28;20038;-82
2023/12/19 05:04:16;;;;;;;1.60;1.10;;;2.90;99.90;;;;;;4967026;28;20047;-82
2023/12/19 05:06:42;;;;;;;1.27;1.02;;;2.90;99.90;;;;;;4966555;28;20026;-82
2023/12/19 05:09:08;;;;;;;1.48;1.08;;;2.80;99.90;;;;;;4959241;28;20027;-84
2023/12/19 05:11:35;;;;;;;1.67;1.50;;;2.90;99.90;;;;;;4957855;28;20027;-85
2023/12/19 05:14:01;;;;;;;1.75;1.10;;;2.80;99.90;;;;;;4957490;28;20413;-84
2023/12/19 05:16:29;;;;;;;2.58;1.23;;;2.80;99.90;;;;;;4957942;28;20452;-84
2023/12/19 05:18:55;;;;;;;3.92;1.60;;;2.80;99.90;;;;;;4940974;28;20026;-85
2023/12/19 05:21:21;;;;;;;4.07;1.80;;;2.80;99.90;;;;;;4958475;29;20485;-84
2023/12/19 05:23:47;;;;;;;2.50;1.42;;;2.80;99.90;;;;;;4959597;28;20473;-83
2023/12/19 05:26:13;;;;;;;2.78;2.13;;;2.80;99.90;;;;;;4957170;28;20090;-83
2023/12/19 05:28:40;;;;;;;3.63;2.35;;;2.80;99.90;;;;;;4957266;29;20106;-85
2023/12/19 05:31:10;;;;;;;3.30;1.93;;;2.80;99.90;;;;;;4958391;28;20489;-81
2023/12/19 05:33:36;;;;;;;4.80;2.70;;;2.80;99.90;;;;;;4957546;28;20043;-83
2023/12/19 05:36:02;;;;;;;3.22;2.13;;;2.80;99.90;;;;;;4972958;28;20067;-83
2023/12/19 05:38:32;;;;;;;3.17;1.85;;;2.80;99.90;;;;;;4958780;28;20110;-84
2023/12/19 05:40:58;;;;;;;4.82;2.38;;;2.80;99.90;;;;;;4946860;28;20081;-84
2023/12/19 05:43:24;;;;;;;6.00;2.47;;;2.80;99.90;;;;;;4955646;28;20388;-85
2023/12/19 05:45:50;;;;;;;3.15;1.95;;;2.90;99.90;;;;;;4958442;28;20062;-81
2023/12/19 05:48:16;;;;;;;1.67;1.30;;;2.90;99.90;;;;;;4941675;29;20027;-82
2023/12/19 05:50:42;;;;;;;2.55;1.70;;;2.90;99.90;;;;;;4959644;28;20030;-83
2023/12/19 05:53:09;;;;;;;2.25;1.70;;;2.80;99.90;;;;;;4951701;29;20230;-83
2023/12/19 05:55:35;;;;;;;2.97;1.55;;;2.90;99.90;;;;;;4964765;29;20082;-83
2023/12/19 05:58:01;;;;;;;3.50;1.77;;;2.80;99.90;;;;;;4966838;28;20102;-83
2023/12/19 06:00:27;;;;;;;4.25;1.65;;;2.80;99.90;;;;;;4938199;29;20119;-82
2023/12/19 06:02:53;;;;;;;4.03;1.67;;;2.80;99.90;;;;;;4941891;29;20032;-82
2023/12/19 06:05:19;;;;;;;2.88;1.48;;;2.70;99.90;;;;;;4958715;28;20447;-84
2023/12/19 06:07:45;;;;;;;2.35;1.73;;;2.70;99.90;;;;;;4963367;28;20485;-82
2023/12/19 06:10:12;;;;;;;2.35;1.58;;;2.70;99.90;;;;;;4955845;28;20031;-83
2023/12/19 06:12:39;;;;;;;2.58;1.58;;;2.80;99.90;;;;;;4956419;28;20086;-82
2023/12/19 06:15:08;;;;;;;3.55;2.22;;;2.70;99.90;;;;;;4955993;29;20094;-85
2023/12/19 06:17:41;;;;;;;3.88;2.05;;;2.70;99.90;;;;;;4956408;28;20019;-83
2023/12/19 06:20:09;;;;;;;4.57;2.33;;;2.70;99.90;;;;;;4963765;29;20046;-84
2023/12/19 06:22:34;;;;;;;;;;;2.70;99.90;;;;;;4961361;28;20552;-83
2023/12/19 06:25:00;;;;;;;2.97;2.28;;;2.70;99.90;;;;;;4961702;28;19941;-84
2023/12/19 06:27:27;;;;;;;6.32;3.70;;;2.70;99.90;;;;;;4955603;28;20024;-82
2023/12/19 06:29:54;;;;;;;1.58;1.48;;;2.70;99.90;;;;;;4958508;28;20027;-83
2023/12/19 06:32:20;;;;;;;3.08;2.13;;;2.70;99.90;;;;;;4968122;28;20028;-81
2023/12/19 06:34:46;;;;;;;8.80;3.67;;;2.70;99.90;;;;;;4958825;28;20015;-82
2023/12/19 06:37:12;;;;;;;4.30;3.08;;;2.70;99.90;;;;;;4940172;29;20035;-81
2023/12/19 06:39:39;;;;;;;3.67;2.33;;;2.70;99.90;;;;;;4956790;29;20023;-83
2023/12/19 06:42:05;;;;;;;3.17;2.28;;;2.80;99.90;;;;;;4957386;28;20027;-83
2023/12/19 06:44:31;;;;;;;7.32;3.40;;;2.70;99.90;;;;;;4958453;28;20038;-83
2023/12/19 06:46:58;;;;;;;4.75;2.60;;;2.80;99.90;;;;;;4957683;28;20489;-85
2023/12/19 06:49:27;;;;;;;3.50;2.07;;;2.80;99.90;;;;;;4939949;29;20035;-84
2023/12/19 06:51:53;;;;;;;6.43;2.78;;;2.90;99.90;;;;;;4955795;28;20277;-84
2023/12/19 06:54:19;;;;;;;4.80;2.65;;;2.90;99.90;;;;;;4955198;28;20090;-83
2023/12/19 06:56:45;;;;;;;4.53;2.40;;;2.90;99.90;;;;;;4955536;28;20493;-84
2023/12/19 06:59:11;;;;;;;2.38;1.60;;;2.90;99.90;;;;;;4953999;28;20023;-83
2023/12/19 07:01:37;;;;;;;60.33;44.50;;;2.90;99.90;;;;;;4941993;29;20612;-83
2023/12/19 07:04:06;;;;;;;5.13;2.60;;;2.90;99.90;;;;;;4946844;29;20125;-84
2023/12/19 07:06:32;;;;;;;4.63;3.83;;;2.90;99.90;;;;;;4940710;28;20489;-84
2023/12/19 07:08:58;;;;;;;23.77;11.77;;;2.90;99.90;;;;;;4952512;29;20023;-83
2023/12/19 07:11:25;;;;;;;14.07;6.68;;;3.00;99.90;;;;;;4961614;29;20158;-85
2023/12/19 07:13:52;;;;;;;4.60;2.00;;;3.00;99.90;;;;;;4956085;29;20384;-84
2023/12/19 07:16:19;;;;;;;6.60;2.63;;;3.10;99.90;;;;;;4955395;29;20493;-85
2023/12/19 07:18:45;;;;;;;2.72;1.77;;;3.00;99.90;;;;;;4926993;29;20032;-85
2023/12/19 07:21:21;;;;;;;12.05;8.70;;;3.00;99.90;;;;;;4959366;29;20031;-85
2023/12/19 07:23:48;;;;;;;20.85;12.95;;;3.10;99.90;;;;;;4959069;29;20386;-85
2023/12/19 07:26:28;;;;;;;6.30;5.10;;;3.10;99.90;;;;;;4959214;29;20031;-84
2023/12/19 07:28:57;;;;;;;23.60;20.08;;;3.10;99.90;;;;;;4958878;29;20067;-85
2023/12/19 07:31:27;;;;;;;6.32;5.60;;;3.10;99.90;;;;;;4943215;29;20031;-83
2023/12/19 07:34:00;;;;;;;4.75;2.63;;;3.10;99.90;;;;;;4962339;29;20019;-84
2023/12/19 07:36:27;;;;;;;4.00;1.92;;;3.10;99.90;;;;;;4943934;29;20429;-84
2023/12/19 07:38:54;;;;;;;5.20;2.93;;;3.10;99.90;;;;;;4967563;29;20018;-85
2023/12/19 07:41:20;;;;;;;5.80;3.80;;;3.00;99.90;;;;;;4974789;29;20027;-84
2023/12/19 07:43:46;;;;;;;5.40;2.13;;;3.10;99.90;;;;;;4948870;29;20494;-83
2023/12/19 07:46:14;;;;;;;4.57;2.70;;;3.10;99.90;;;;;;4955065;29;20429;-83
2023/12/19 07:48:40;;;;;;;9.18;4.53;;;3.10;99.90;;;;;;4954942;29;20582;-83
2023/12/19 07:51:06;;;;;;;4.57;2.60;;;3.10;99.90;;;;;;4954678;29;20440;-83
2023/12/19 07:53:32;;;;;;;12.60;6.60;;;3.10;99.90;;;;;;4954622;29;20417;-84
2023/12/19 07:56:00;;;;;;;22.08;18.42;;;3.10;99.90;;;;;;4954968;29;20050;-84
2023/12/19 07:58:26;;;;;;;21.58;17.38;;;3.10;99.90;;;;;;4954420;29;20102;-84
2023/12/19 08:00:53;;;;;;;8.98;3.33;;;3.20;99.90;;;;;;4943702;29;20381;-83
2023/12/19 08:03:19;;;;;;;10.10;7.75;;;3.20;99.90;;;;;;4937565;29;20420;-83
2023/12/19 08:05:50;;;;;;;6.45;4.00;;;3.20;99.90;;;;;;4936874;29;20031;-84
2023/12/19 08:08:17;;;;;;;5.40;3.00;;;3.20;99.90;;;;;;4954978;29;20408;-83
2023/12/19 08:10:44;;;;;;;4.05;2.97;;;3.20;99.90;;;;;;4937316;29;20389;-83
2023/12/19 08:13:10;;;;;;;5.45;2.72;;;3.20;99.90;;;;;;4953171;29;20106;-83
2023/12/19 08:15:36;;;;;;;9.38;2.53;;;3.30;99.90;;;;;;4954360;29;20034;-84
2023/12/19 08:18:02;;;;;;;4.82;3.33;;;3.30;99.90;;;;;;4954510;29;20382;-86
2023/12/19 08:20:28;;;;;;;5.57;2.95;;;3.20;99.90;;;;;;4953391;28;20051;-83
2023/12/19 08:22:54;;;;;;;5.03;3.00;;;3.20;99.90;;;;;;4933458;29;20426;-84
2023/12/19 08:25:20;;;;;;;5.53;3.53;;;3.20;99.90;;;;;;4951984;29;20019;-83
2023/12/19 08:27:46;;;;;;;4.07;2.67;;;3.20;99.90;;;;;;4954596;29;20051;-88
2023/12/19 08:30:12;;;;;;;5.68;3.83;;;3.20;99.90;;;;;;4940331;29;20374;-85
2023/12/19 08:32:39;;;;;;;7.47;3.88;;;3.20;99.90;;;;;;4952709;28;20058;-84
2023/12/19 08:35:06;;;;;;;7.40;3.20;;;3.20;99.90;;;;;;4937064;29;20028;-84
2023/12/19 08:37:32;;;;;;;4.88;3.70;;;3.20;99.90;;;;;;4937466;29;20493;-86
2023/12/19 08:40:02;;;;;;;8.07;5.65;;;3.30;99.90;;;;;;4956200;29;20104;-85
2023/12/19 08:42:29;;;;;;;7.40;3.92;;;3.30;99.90;;;;;;4952087;29;20186;-82
2023/12/19 08:44:55;;;;;;;3.20;2.22;;;3.30;99.90;;;;;;4954881;29;20065;-84
2023/12/19 08:47:22;;;;;;;3.07;1.97;;;3.20;99.90;;;;;;4953606;29;20106;-84
2023/12/19 08:49:52;;;;;;;6.22;3.13;;;3.10;99.90;;;;;;4936616;29;20058;-85
2023/12/19 08:52:21;;;;;;;4.50;3.22;;;3.10;99.90;;;;;;4953728;29;20074;-84
2023/12/19 08:54:47;;;;;;;4.82;2.50;;;3.10;99.90;;;;;;4936646;29;20035;-84
2023/12/19 08:57:14;;;;;;;4.45;2.63;;;3.10;99.90;;;;;;4953725;29;20043;-84
2023/12/19 08:59:40;;;;;;;15.18;4.57;;;3.20;99.90;;;;;;4935373;29;20074;-84
2023/12/19 09:02:07;;;;;;;5.45;3.22;;;3.20;99.90;;;;;;4937427;29;20055;-82
2023/12/19 09:04:33;;;;;;;4.80;3.42;;;3.20;99.90;;;;;;4954970;29;20126;-83
2023/12/19 09:06:59;;;;;;;10.57;4.45;;;3.30;99.90;;;;;;4957600;29;20054;-84
2023/12/19 09:09:27;;;;;;;4.50;3.22;;;3.30;99.90;;;;;;4957304;29;20023;-82
2023/12/19 09:11:53;;;;;;;;;;;3.40;99.90;;;;;;4958483;29;20027;-84
2023/12/19 09:14:20;;;;;;;4.15;2.40;;;3.50;99.90;;;;;;4964815;29;20323;-84
2023/12/19 09:16:45;;;;;;;4.78;2.38;;;3.50;99.90;;;;;;4942276;29;20120;-84
2023/12/19 09:19:16;;;;;;;2.90;1.90;;;3.40;99.90;;;;;;4959228;28;20031;-83
2023/12/19 09:21:42;;;;;;;4.80;2.80;;;3.30;99.90;;;;;;4961377;29;20386;-85
2023/12/19 09:24:08;;;;;;;3.40;2.38;;;3.20;99.90;;;;;;4958580;29;20016;-86
2023/12/19 09:26:37;;;;;;;3.30;2.35;;;3.10;99.90;;;;;;4960550;29;20090;-83
2023/12/19 09:29:02;;;;;;;3.70;2.42;;;3.10;99.90;;;;;;4968165;29;20027;-84
2023/12/19 09:31:28;;;;;;;4.85;2.97;;;3.00;99.90;;;;;;4961096;29;20031;-85
2023/12/19 09:33:54;;;;;;;5.32;4.03;;;3.10;99.90;;;;;;4957592;29;20389;-86
2023/12/19 09:36:22;;;;;;;5.70;2.47;;;3.10;99.90;;;;;;4957416;29;20062;-85
2023/12/19 09:38:48;;;;;;;5.57;2.80;;;3.10;99.90;;;;;;4943585;28;20297;-86
2023/12/19 09:41:14;;;;;;;3.15;2.20;;;3.10;99.90;;;;;;4955998;29;20066;-84
2023/12/19 09:43:41;;;;;;;3.30;2.30;;;3.00;99.90;;;;;;4945501;29;20028;-84
2023/12/19 09:46:08;;;;;;;3.42;2.33;;;3.00;99.90;;;;;;4939988;29;20030;-85
2023/12/19 09:48:36;;;;;;;4.45;2.28;;;3.10;99.90;;;;;;4939662;29;20035;-84
2023/12/19 09:51:03;;;;;;;4.03;2.67;;;3.10;99.90;;;;;;4939945;29;20496;-84
2023/12/19 09:53:34;;;;;;;2.47;1.80;;;3.10;99.90;;;;;;4948676;28;20140;-85
2023/12/19 09:56:00;;;;;;;3.47;2.15;;;3.10;99.90;;;;;;4960900;29;20039;-85
2023/12/19 09:58:28;;;;;;;3.17;1.97;;;3.10;99.90;;;;;;4952621;29;20031;-84
2023/12/19 10:00:58;;;;;;;5.90;1.85;;;3.00;99.90;;;;;;4945694;29;20034;-85
2023/12/19 10:03:24;;;;;;;2.80;2.03;;;3.00;99.90;;;;;;4956257;29;20105;-84
2023/12/19 10:05:49;;;;;;;4.10;2.45;;;3.00;99.90;;;;;;4958458;29;20031;-83
2023/12/19 10:08:16;;;;;;;4.32;2.80;;;3.10;99.90;;;;;;4944379;28;20027;-82
2023/12/19 10:10:55;;;;;;;4.85;2.65;;;3.10;99.90;;;;;;4951248;28;20027;-83
2023/12/19 10:13:31;;;;;;;3.47;2.05;;;3.20;99.90;;;;;;4960112;29;20493;-84
2023/12/19 10:16:17;;;;;;;3.78;3.10;;;3.10;99.90;;;;;;4968733;29;20387;-86
2023/12/19 10:18:44;;;;;;;1.90;1.65;;;3.10;99.90;;;;;;4957750;28;20468;-85
2023/12/19 10:21:11;;;;;;;4.75;3.17;;;3.10;99.90;;;;;;4939175;29;20382;-84
2023/12/19 10:23:40;;;;;;;3.45;1.77;;;3.00;99.90;;;;;;4956428;29;20015;-84
2023/12/19 10:26:07;;;;;;;3.05;1.90;;;3.00;99.90;;;;;;4955831;29;20358;-85
2023/12/19 10:28:34;;;;;;;3.53;2.40;;;2.90;99.90;;;;;;4935783;29;20512;-84
2023/12/19 10:31:16;;;;;;;3.08;1.60;;;3.00;99.90;;;;;;4938309;29;20066;-85
2023/12/19 10:33:49;;;;;;;4.30;2.28;;;3.00;99.90;;;;;;4953669;29;20548;-84
2023/12/19 10:36:31;;;;;;;7.70;4.05;;;2.90;99.90;;;;;;4945824;29;20121;-84
2023/12/19 10:38:59;;;;;;;10.13;7.13;;;2.90;99.90;;;;;;4943562;28;20095;-86
2023/12/19 10:41:33;;;;;;;4.63;2.50;;;2.90;99.90;;;;;;4936948;29;20059;-84
2023/12/19 10:44:00;;;;;;;5.47;2.30;;;2.90;99.90;;;;;;4954971;29;20053;-84
2023/12/19 10:46:28;;;;;;;5.05;2.85;;;2.90;99.90;;;;;;4961145;29;20485;-84
2023/12/19 10:48:54;;;;;;;;;;;3.00;99.90;;;;;;4957609;29;20063;-83
2023/12/19 10:51:41;;;;;;;5.15;2.35;;;3.00;99.90;;;;;;4956234;29;19950;-84
2023/12/19 10:54:11;;;;;;;4.28;2.63;;;3.00;99.90;;;;;;4958684;29;20023;-85
2023/12/19 10:57:08;;;;;;;5.03;2.60;;;2.90;99.90;;;;;;4958763;29;20039;-83
2023/12/19 11:00:11;;;;;;;5.53;2.67;;;2.90;99.90;;;;;;4945304;29;20024;-85
2023/12/19 11:02:45;;;;;;;3.42;2.20;;;2.90;99.90;;;;;;4956355;29;20023;-83
2023/12/19 11:05:17;;;;;;;3.92;2.35;;;2.90;99.90;;;;;;4926316;29;20126;-85
2023/12/19 11:07:50;;;;;;;9.82;6.25;;;3.00;99.90;;;;;;4957756;29;20027;-83
2023/12/19 11:10:19;;;;;;;4.95;3.35;;;3.00;99.90;;;;;;4957734;29;20023;-86
2023/12/19 11:12:46;;;;;;;6.60;4.75;;;3.10;99.90;;;;;;4955694;29;20031;-85
2023/12/19 11:15:12;;;;;;;6.07;4.90;;;3.10;99.90;;;;;;4958876;29;20097;-84
2023/12/19 11:18:06;;;;;;;13.73;8.63;;;3.10;99.90;;;;;;4956180;28;20598;-84
2023/12/19 11:20:42;;;;;;;15.07;10.65;;;3.10;99.90;;;;;;4942697;28;20106;-83
2023/12/19 11:23:27;;;;;;;7.03;5.05;;;3.10;99.90;;;;;;4955449;29;20033;-85
2023/12/19 11:26:15;;;;;;;7.05;4.43;;;3.10;99.90;;;;;;4955001;29;20457;-85
2023/12/19 11:28:41;;;;;;;10.23;4.80;;;3.20;99.90;;;;;;4955191;29;20094;-85
2023/12/19 11:31:32;;;;;;;10.40;3.60;;;3.20;99.90;;;;;;4955094;29;20106;-85
2023/12/19 11:34:19;;;;;;;8.98;4.47;;;3.20;99.90;;;;;;4954658;29;20054;-85
2023/12/19 11:36:46;;;;;;;6.05;3.45;;;3.10;99.90;;;;;;4938216;29;20057;-86
2023/12/19 11:39:31;;;;;;;5.43;3.15;;;3.00;99.90;;;;;;4959859;28;20027;-84
2023/12/19 11:41:57;;;;;;;6.55;3.55;;;3.00;99.90;;;;;;4965816;29;20031;-85
2023/12/19 11:44:36;;;;;;;5.75;3.33;;;2.90;99.90;;;;;;4965182;29;20027;-85
2023/12/19 11:47:16;;;;;;;4.82;4.00;;;2.90;99.90;;;;;;4958869;28;20023;-86
2023/12/19 11:49:42;;;;;;;6.88;3.63;;;2.90;99.90;;;;;;4964891;28;20034;-85
2023/12/19 11:52:08;;;;;;;8.93;3.33;;;2.80;99.90;;;;;;4963998;29;20019;-87
2023/12/19 11:54:34;;;;;;;7.53;4.82;;;2.80;99.90;;;;;;4941830;29;20031;-85
2023/12/19 11:57:01;;;;;;;5.85;3.67;;;2.70;99.90;;;;;;4940802;29;20142;-84
2023/12/19 12:00:06;;;;;;;;;;;2.60;99.90;;;;;;4955562;29;20072;-84
2023/12/19 12:02:36;;;;;;;9.23;3.70;;;2.60;99.90;;;;;;4914993;29;19911;-83
2023/12/19 12:05:13;;;;;;;7.80;3.45;;;2.60;99.90;;;;;;4914959;29;20051;-84
2023/12/19 12:07:56;;;;;;;6.53;3.85;;;2.60;99.90;;;;;;4898312;29;20040;-83
2023/12/19 12:10:25;;;;;;;6.90;5.57;;;2.60;99.90;;;;;;4914203;29;20090;-84
2023/12/19 12:12:51;;;;;;;4.93;2.88;;;2.60;99.90;;;;;;4913858;29;20024;-85
2023/12/19 12:15:21;;;;;;;4.82;2.95;;;2.60;99.90;;;;;;4914069;29;20028;-84
2023/12/19 12:17:50;;;;;;;11.60;6.10;;;2.60;99.90;;;;;;4914368;29;20032;-83
2023/12/19 12:20:24;;;;;;;3.55;2.22;;;2.70;99.90;;;;;;4898585;29;20036;-84
2023/12/19 12:22:54;;;;;;;6.38;3.53;;;2.70;99.90;;;;;;4913976;29;20040;-83
2023/12/19 12:25:22;;;;;;;8.88;3.50;;;2.70;99.90;;;;;;4898801;29;20028;-83
2023/12/19 12:27:48;;;;;;;5.25;2.88;;;2.70;99.90;;;;;;4914300;29;20044;-84
2023/12/19 12:30:14;;;;;;;12.27;6.35;;;2.70;99.90;;;;;;4914135;29;20410;-85
2023/12/19 12:32:45;;;;;;;5.07;2.95;;;2.70;99.90;;;;;;4905856;29;20046;-84
2023/12/19 12:35:24;;;;;;;4.72;2.65;;;2.70;99.90;;;;;;4949635;29;20110;-83
2023/12/19 12:38:00;;;;;;;4.25;2.60;;;2.80;99.90;;;;;;4955170;29;20019;-83
2023/12/19 12:40:27;;;;;;;4.27;2.67;;;2.80;99.90;;;;;;4959481;29;20079;-84
2023/12/19 12:43:13;;;;;;;3.05;2.03;;;2.80;99.90;;;;;;4954680;28;20096;-84
2023/12/19 12:45:39;;;;;;;3.53;2.70;;;2.80;99.90;;;;;;4930328;28;20036;-82
2023/12/19 12:48:14;;;;;;;5.35;3.10;;;2.80;99.90;;;;;;4928907;29;20050;-84
2023/12/19 12:50:40;;;;;;;14.70;10.85;;;2.80;99.90;;;;;;4951088;28;20027;-84
2023/12/19 12:53:12;;;;;;;16.58;13.25;;;2.80;99.90;;;;;;4959175;29;20015;-84
2023/12/19 12:55:38;;;;;;;5.22;2.92;;;2.80;99.90;;;;;;4957318;29;20043;-85
2023/12/19 12:58:04;;;;;;;6.13;3.63;;;2.90;99.90;;;;;;4945999;29;20023;-84
2023/12/19 13:00:30;;;;;;;4.75;2.28;;;2.90;99.90;;;;;;4965354;29;20034;-85
2023/12/19 13:02:56;;;;;;;5.75;3.35;;;2.90;99.90;;;;;;4960853;29;20497;-85